Terminal Aerodrome Forecast
Issued by NWS

Home | Current Version | Previous Version | Text Only | Print | Product List | Glossary On
Versions: 1 2 3 4 5 6 7 8 9 10 11 12 13 14 15
000
FTUS45 KPIH 271611 AAB
TAFSUN
TAF AMD
KSUN 271611Z 2716/2812 VRB06KT P6SM -SHRA VCTS SCT060 BKN100CB
      TEMPO 2716/2717 -TSRA SCT040 BKN060CB
     FM271800 16008KT P6SM -SHRA VCTS OVC060CB
     FM280400 31008KT P6SM BKN150=

USA.gov is the U.S. government's official web portal to all federal, state and local government web resources and services.